createdAt,value
2019-03-30T00:04:58.780Z,64.97
2019-03-30T00:10:01.368Z,64.56
2019-03-30T00:15:04.082Z,64.83
2019-03-30T00:20:07.541Z,65.32
2019-03-30T00:25:10.099Z,65.41
2019-03-30T00:30:12.785Z,65.42
2019-03-30T00:35:15.701Z,65.31
2019-03-30T00:40:18.662Z,65.42
2019-03-30T00:45:21.306Z,66.44
2019-03-30T00:50:23.923Z,65.50
2019-03-30T00:55:26.564Z,65.94
2019-03-30T01:00:29.310Z,65.93
2019-03-30T01:05:31.863Z,66.12
2019-03-30T01:10:34.476Z,66.48
2019-03-30T01:15:37.148Z,66.60
2019-03-30T01:20:39.796Z,66.84
2019-03-30T01:25:42.396Z,67.45
2019-03-30T01:30:45.031Z,66.57
2019-03-30T01:35:47.682Z,67.34
2019-03-30T01:40:50.379Z,67.88
2019-03-30T01:45:52.949Z,67.66
2019-03-30T01:50:55.554Z,68.12
2019-03-30T01:55:58.481Z,67.60
2019-03-30T02:01:01.134Z,67.80
2019-03-30T02:06:04.205Z,68.64
2019-03-30T02:11:06.890Z,68.73
2019-03-30T02:16:09.471Z,68.48
2019-03-30T02:21:12.120Z,69.13
2019-03-30T02:26:14.757Z,69.28
2019-03-30T02:31:17.412Z,69.20
2019-03-30T02:36:20.012Z,68.38
2019-03-30T02:41:22.748Z,69.65
2019-03-30T02:46:25.367Z,69.80
2019-03-30T02:51:27.968Z,69.90
2019-03-30T02:56:30.580Z,69.81
2019-03-30T03:01:33.286Z,70.50
2019-03-30T03:06:35.871Z,70.76
2019-03-30T03:11:38.522Z,71.16
2019-03-30T03:16:41.159Z,70.98
2019-03-30T03:21:43.786Z,71.33
2019-03-30T03:26:46.475Z,71.10
2019-03-30T03:31:49.141Z,72.01
2019-03-30T03:36:51.772Z,71.63
2019-03-30T03:41:54.351Z,72.50
2019-03-30T03:46:56.960Z,72.33
2019-03-30T03:52:00.723Z,72.19
2019-03-30T03:57:03.688Z,73.33
2019-03-30T04:02:09.358Z,72.87
2019-03-30T04:07:12.773Z,72.49
2019-03-30T04:12:17.075Z,73.13
2019-03-30T04:17:19.808Z,73.22
2019-03-30T04:22:23.516Z,73.65
2019-03-30T04:27:26.170Z,72.25
2019-03-30T04:32:28.815Z,74.21
2019-03-30T04:37:31.411Z,74.00
2019-03-30T04:42:34.134Z,73.90
2019-03-30T04:47:36.779Z,73.80
2019-03-30T04:52:39.447Z,74.62
2019-03-30T04:57:42.036Z,74.38
2019-03-30T05:02:44.772Z,75.51
2019-03-30T05:07:47.390Z,75.57
2019-03-30T05:12:49.962Z,74.88
2019-03-30T05:17:52.566Z,74.87
2019-03-30T05:22:55.231Z,75.92
2019-03-30T05:27:57.842Z,74.99
2019-03-30T05:33:05.999Z,74.55
2019-03-30T05:38:05.104Z,74.01
2019-03-30T05:43:07.718Z,74.23
2019-03-30T05:48:10.361Z,74.27
2019-03-30T05:53:12.979Z,74.00
2019-03-30T05:58:15.580Z,74.12
2019-03-30T06:03:18.394Z,74.08
2019-03-30T06:08:21.016Z,73.47
2019-03-30T06:13:23.713Z,71.51
2019-03-30T06:18:26.311Z,72.50
2019-03-30T06:23:29.017Z,72.99
2019-03-30T06:28:31.666Z,72.08
2019-03-30T06:33:34.410Z,72.46
2019-03-30T06:38:37.426Z,71.70
2019-03-30T06:43:43.686Z,71.16
2019-03-30T06:48:46.313Z,70.71
2019-03-30T06:53:49.102Z,69.99
2019-03-30T06:58:51.761Z,69.75
2019-03-30T07:03:54.877Z,69.22
2019-03-30T07:08:58.305Z,69.69
2019-03-30T07:14:02.853Z,69.39
2019-03-30T07:19:05.411Z,69.56
2019-03-30T07:24:08.036Z,69.10
2019-03-30T07:29:10.696Z,67.99
2019-03-30T07:34:13.264Z,67.38
2019-03-30T07:39:15.909Z,66.89
2019-03-30T07:44:18.990Z,65.67
2019-03-30T07:49:21.665Z,65.47
2019-03-30T07:54:24.287Z,65.33
2019-03-30T07:59:26.888Z,64.66
2019-03-30T08:04:29.627Z,64.42
2019-03-30T08:09:32.267Z,63.41
2019-03-30T08:14:35.004Z,63.45
2019-03-30T08:19:37.600Z,63.23
2019-03-30T08:24:46.084Z,62.23
2019-03-30T08:29:48.949Z,62.23
2019-03-30T08:34:51.560Z,62.10
2019-03-30T08:39:54.293Z,60.23
2019-03-30T08:44:57.431Z,60.23
2019-03-30T08:50:00.025Z,60.14
2019-03-30T08:55:02.839Z,59.22
2019-03-30T09:00:06.518Z,57.11
2019-03-30T09:05:10.943Z,56.87
2019-03-30T09:10:13.729Z,57.28
2019-03-30T09:15:16.397Z,56.52
2019-03-30T09:20:20.175Z,56.17
2019-03-30T09:25:22.890Z,55.23
2019-03-30T09:30:25.747Z,53.67
2019-03-30T09:35:28.615Z,52.98
2019-03-30T09:40:31.998Z,52.94
2019-03-30T09:45:34.632Z,51.79
2019-03-30T09:50:37.254Z,51.82
2019-03-30T09:55:39.885Z,51.38
2019-03-30T10:00:42.529Z,50.60
2019-03-30T10:05:45.196Z,51.01
2019-03-30T10:10:49.242Z,49.64
2019-03-30T10:15:51.910Z,48.47
2019-03-30T10:20:54.567Z,48.30
2019-03-30T10:25:57.177Z,48.48
2019-03-30T10:31:00.179Z,47.46
2019-03-30T10:36:02.961Z,48.40
2019-03-30T10:41:05.751Z,47.30
2019-03-30T10:46:16.965Z,46.49
2019-03-30T10:51:19.837Z,45.88
2019-03-30T10:56:22.593Z,45.54
2019-03-30T11:01:25.475Z,44.75
2019-03-30T11:06:28.185Z,44.15
2019-03-30T11:11:30.935Z,44.92
2019-03-30T11:16:33.673Z,44.00
2019-03-30T11:21:36.522Z,44.83
2019-03-30T11:26:41.104Z,44.61
2019-03-30T11:31:43.861Z,43.15
2019-03-30T11:36:46.624Z,41.96
2019-03-30T11:41:51.785Z,42.04
2019-03-30T11:46:54.500Z,41.34
2019-03-30T11:51:57.155Z,41.50
2019-03-30T11:56:59.858Z,40.12
2019-03-30T12:02:05.373Z,40.71
2019-03-30T12:07:08.108Z,40.84
2019-03-30T12:12:10.706Z,39.57
2019-03-30T12:17:13.331Z,41.06
2019-03-30T12:22:15.977Z,39.02
2019-03-30T12:27:18.957Z,39.67
2019-03-30T12:32:23.697Z,40.50
2019-03-30T12:37:26.325Z,39.61
2019-03-30T12:42:29.046Z,38.21
2019-03-30T12:47:31.715Z,37.69
2019-03-30T12:52:34.612Z,37.19
2019-03-30T12:57:37.317Z,36.38
2019-03-30T13:02:39.985Z,36.85
2019-03-30T13:07:42.708Z,37.06
2019-03-30T13:12:45.420Z,36.87
2019-03-30T13:17:48.039Z,34.54
2019-03-30T13:22:50.639Z,33.71
2019-03-30T13:27:53.531Z,34.95
2019-03-30T13:32:56.249Z,33.92
2019-03-30T13:37:59.956Z,34.80
2019-03-30T13:43:03.099Z,32.97
2019-03-30T13:48:05.846Z,32.46
2019-03-30T13:53:09.118Z,32.25
2019-03-30T13:58:11.774Z,30.46
2019-03-30T14:03:14.561Z,31.04
2019-03-30T14:08:17.256Z,31.60
2019-03-30T14:13:19.938Z,30.66
2019-03-30T14:18:25.578Z,31.06
2019-03-30T14:23:28.339Z,31.06
2019-03-30T14:28:30.954Z,30.93
2019-03-30T14:33:33.589Z,29.43
2019-03-30T14:38:37.857Z,29.12
2019-03-30T14:43:40.542Z,29.58
2019-03-30T14:48:43.321Z,29.17
2019-03-30T14:53:46.037Z,28.76
2019-03-30T14:58:48.713Z,29.66
2019-03-30T15:03:51.432Z,29.85
2019-03-30T15:08:54.076Z,30.04
2019-03-30T15:13:56.701Z,28.65
2019-03-30T15:18:59.383Z,28.76
2019-03-30T15:24:02.073Z,28.33
2019-03-30T15:29:04.774Z,27.98
2019-03-30T15:34:07.459Z,29.06
2019-03-30T15:39:10.154Z,29.33
2019-03-30T15:44:12.855Z,19.18
2019-03-30T15:49:15.690Z,23.20
2019-03-30T15:54:22.961Z,25.55
2019-03-30T15:59:28.803Z,28.64
2019-03-30T16:04:31.508Z,29.75
2019-03-30T16:09:34.542Z,30.64
2019-03-30T16:14:37.394Z,30.22
2019-03-30T16:19:40.258Z,30.56
2019-03-30T16:24:43.725Z,30.75
2019-03-30T16:29:46.471Z,28.97
2019-03-30T16:34:49.522Z,29.83
2019-03-30T16:39:52.317Z,31.26
2019-03-30T16:44:54.932Z,30.91
2019-03-30T16:49:57.680Z,31.31
2019-03-30T16:55:00.633Z,31.61
2019-03-30T17:00:04.390Z,31.56
2019-03-30T17:05:07.687Z,31.71
2019-03-30T17:10:10.771Z,32.15
2019-03-30T17:16:35.593Z,33.99
2019-03-30T17:21:38.347Z,30.05
2019-03-30T17:26:40.967Z,30.20
2019-03-30T17:31:43.601Z,30.16
2019-03-30T17:36:46.351Z,31.05
2019-03-30T17:41:48.946Z,31.16
2019-03-30T17:46:51.624Z,31.69
2019-03-30T17:51:54.292Z,31.67
2019-03-30T17:56:56.906Z,32.42
2019-03-30T18:01:59.593Z,33.33
2019-03-30T18:07:02.526Z,34.00
2019-03-30T18:12:05.190Z,33.92
2019-03-30T18:17:07.804Z,34.20
2019-03-30T18:22:10.472Z,33.69
2019-03-30T18:27:13.067Z,34.12
2019-03-30T18:32:16.759Z,34.29
2019-03-30T18:37:20.220Z,34.77
2019-03-30T18:42:22.865Z,34.89
2019-03-30T18:47:25.483Z,34.57
2019-03-30T18:52:28.423Z,34.44
2019-03-30T18:57:31.258Z,35.44
2019-03-30T19:02:33.984Z,36.76
2019-03-30T19:07:36.837Z,38.07
2019-03-30T19:12:39.421Z,38.67
2019-03-30T19:17:42.161Z,39.38
2019-03-30T19:22:44.801Z,39.76
2019-03-30T19:27:47.441Z,40.06
2019-03-30T19:32:50.194Z,41.05
2019-03-30T19:37:53.160Z,41.59
2019-03-30T19:42:55.798Z,41.77
2019-03-30T19:47:58.403Z,42.53
2019-03-30T19:53:01.104Z,42.44
2019-03-30T19:58:03.816Z,41.99
2019-03-30T20:03:06.597Z,43.07
2019-03-30T20:08:12.290Z,43.60
2019-03-30T20:13:13.798Z,43.58
2019-03-30T20:18:16.394Z,44.25
2019-03-30T20:23:19.118Z,43.17
2019-03-30T20:28:21.733Z,44.10
2019-03-30T20:33:24.427Z,44.32
2019-03-30T20:38:27.188Z,45.36
2019-03-30T20:43:29.804Z,44.80
2019-03-30T20:48:32.422Z,45.64
2019-03-30T20:53:35.120Z,44.71
2019-03-30T20:58:37.771Z,46.13
2019-03-30T21:03:40.417Z,43.78
2019-03-30T21:08:43.150Z,45.63
2019-03-30T21:13:45.758Z,42.04
2019-03-30T21:18:48.471Z,42.64
2019-03-30T21:23:51.097Z,43.48
2019-03-30T21:28:53.769Z,43.85
2019-03-30T21:33:56.393Z,44.98
2019-03-30T21:38:59.023Z,47.46
2019-03-30T21:44:01.660Z,46.70
2019-03-30T21:49:04.258Z,47.47
2019-03-30T21:54:06.877Z,47.87
2019-03-30T21:59:09.455Z,47.50
2019-03-30T22:04:12.030Z,47.65
2019-03-30T22:09:14.865Z,46.94
2019-03-30T22:14:17.452Z,47.07
2019-03-30T22:19:20.067Z,47.67
2019-03-30T22:24:22.704Z,49.29
2019-03-30T22:29:25.339Z,47.80
2019-03-30T22:34:27.887Z,47.99
2019-03-30T22:39:30.533Z,48.49
2019-03-30T22:44:33.268Z,48.72
2019-03-30T22:49:35.973Z,47.34
2019-03-30T22:54:39.040Z,47.79
2019-03-30T22:59:41.716Z,49.23
2019-03-30T23:04:44.499Z,50.08
2019-03-30T23:09:47.392Z,49.56
2019-03-30T23:14:50.351Z,51.06
2019-03-30T23:19:53.286Z,51.34
2019-03-30T23:24:55.927Z,51.02
2019-03-30T23:29:58.639Z,51.80
2019-03-30T23:35:01.324Z,51.78
2019-03-30T23:40:04.779Z,51.76
2019-03-30T23:45:07.630Z,51.45
2019-03-30T23:50:10.325Z,51.35
2019-03-30T23:55:13.252Z,52.97
